sensor_id;sensor_type;location;lat;lon;timestamp;temperature;humidity
18047;DHT22;9148;51.454;13.862;2023-01-08T00:02:22;5.60;99.90
18047;DHT22;9148;51.454;13.862;2023-01-08T00:04:48;5.60;99.90
18047;DHT22;9148;51.454;13.862;2023-01-08T00:07:14;5.60;99.90
18047;DHT22;9148;51.454;13.862;2023-01-08T00:09:40;6.10;99.90
18047;DHT22;9148;51.454;13.862;2023-01-08T00:12:05;6.30;99.90
18047;DHT22;9148;51.454;13.862;2023-01-08T00:14:31;6.70;99.90
18047;DHT22;9148;51.454;13.862;2023-01-08T00:16:57;5.60;99.90
18047;DHT22;9148;51.454;13.862;2023-01-08T00:19:22;5.60;99.90
18047;DHT22;9148;51.454;13.862;2023-01-08T00:21:48;5.70;99.90
18047;DHT22;9148;51.454;13.862;2023-01-08T00:24:14;5.70;99.90
18047;DHT22;9148;51.454;13.862;2023-01-08T00:26:39;6.30;99.90
18047;DHT22;9148;51.454;13.862;2023-01-08T00:29:05;6.50;99.90
18047;DHT22;9148;51.454;13.862;2023-01-08T00:31:30;5.80;99.90
18047;DHT22;9148;51.454;13.862;2023-01-08T00:33:56;5.80;99.90
18047;DHT22;9148;51.454;13.862;2023-01-08T00:36:22;6.00;99.90
18047;DHT22;9148;51.454;13.862;2023-01-08T00:38:47;6.50;99.90
18047;DHT22;9148;51.454;13.862;2023-01-08T00:41:14;6.60;99.90
18047;DHT22;9148;51.454;13.862;2023-01-08T00:43:40;5.90;99.90
18047;DHT22;9148;51.454;13.862;2023-01-08T00:46:06;5.80;99.90
18047;DHT22;9148;51.454;13.862;2023-01-08T00:48:33;6.00;99.90
18047;DHT22;9148;51.454;13.862;2023-01-08T00:51:03;6.00;99.90
18047;DHT22;9148;51.454;13.862;2023-01-08T00:53:30;6.00;99.90
18047;DHT22;9148;51.454;13.862;2023-01-08T00:56:04;6.00;99.90
18047;DHT22;9148;51.454;13.862;2023-01-08T00:58:31;6.00;99.90
18047;DHT22;9148;51.454;13.862;2023-01-08T01:00:57;6.00;99.90
18047;DHT22;9148;51.454;13.862;2023-01-08T01:03:23;6.10;99.90
18047;DHT22;9148;51.454;13.862;2023-01-08T01:05:49;6.80;99.90
18047;DHT22;9148;51.454;13.862;2023-01-08T01:08:15;6.90;99.90
18047;DHT22;9148;51.454;13.862;2023-01-08T01:10:41;6.00;99.90
18047;DHT22;9148;51.454;13.862;2023-01-08T01:13:06;6.10;99.90
18047;DHT22;9148;51.454;13.862;2023-01-08T01:15:33;6.10;99.90
18047;DHT22;9148;51.454;13.862;2023-01-08T01:17:59;6.00;99.90
18047;DHT22;9148;51.454;13.862;2023-01-08T01:20:25;6.10;99.90
18047;DHT22;9148;51.454;13.862;2023-01-08T01:22:50;6.00;99.90
18047;DHT22;9148;51.454;13.862;2023-01-08T01:25:16;6.00;99.90
18047;DHT22;9148;51.454;13.862;2023-01-08T01:27:42;5.90;99.90
18047;DHT22;9148;51.454;13.862;2023-01-08T01:30:08;5.80;99.90
18047;DHT22;9148;51.454;13.862;2023-01-08T01:32:34;5.90;99.90
18047;DHT22;9148;51.454;13.862;2023-01-08T01:35:00;5.80;99.90
18047;DHT22;9148;51.454;13.862;2023-01-08T01:37:25;5.90;99.90
18047;DHT22;9148;51.454;13.862;2023-01-08T01:39:52;6.10;99.90
18047;DHT22;9148;51.454;13.862;2023-01-08T01:42:18;5.20;99.90
18047;DHT22;9148;51.454;13.862;2023-01-08T01:45:12;6.40;99.90
18047;DHT22;9148;51.454;13.862;2023-01-08T01:47:41;5.70;99.90
18047;DHT22;9148;51.454;13.862;2023-01-08T01:50:16;5.80;99.90
18047;DHT22;9148;51.454;13.862;2023-01-08T01:52:53;6.50;99.90
18047;DHT22;9148;51.454;13.862;2023-01-08T01:55:25;5.70;99.90
18047;DHT22;9148;51.454;13.862;2023-01-08T01:58:02;6.50;99.90
18047;DHT22;9148;51.454;13.862;2023-01-08T02:00:32;5.60;99.90
18047;DHT22;9148;51.454;13.862;2023-01-08T02:02:58;5.60;99.90
18047;DHT22;9148;51.454;13.862;2023-01-08T02:05:30;5.50;99.90
18047;DHT22;9148;51.454;13.862;2023-01-08T02:08:10;5.60;99.90
18047;DHT22;9148;51.454;13.862;2023-01-08T02:10:47;5.60;99.90
18047;DHT22;9148;51.454;13.862;2023-01-08T02:13:24;5.50;99.90
18047;DHT22;9148;51.454;13.862;2023-01-08T02:15:57;6.00;99.90
18047;DHT22;9148;51.454;13.862;2023-01-08T02:19:01;6.20;99.90
18047;DHT22;9148;51.454;13.862;2023-01-08T02:21:46;5.50;99.90
18047;DHT22;9148;51.454;13.862;2023-01-08T02:27:07;5.40;99.90
18047;DHT22;9148;51.454;13.862;2023-01-08T02:29:33;5.90;99.90
18047;DHT22;9148;51.454;13.862;2023-01-08T02:32:00;5.30;99.90
18047;DHT22;9148;51.454;13.862;2023-01-08T02:34:26;5.30;99.90
18047;DHT22;9148;51.454;13.862;2023-01-08T02:36:54;5.30;99.90
18047;DHT22;9148;51.454;13.862;2023-01-08T02:39:50;5.40;99.90
18047;DHT22;9148;51.454;13.862;2023-01-08T02:42:31;5.40;99.90
18047;DHT22;9148;51.454;13.862;2023-01-08T02:45:49;5.30;99.90
18047;DHT22;9148;51.454;13.862;2023-01-08T02:48:26;5.30;99.90
18047;DHT22;9148;51.454;13.862;2023-01-08T02:51:10;5.40;99.90
18047;DHT22;9148;51.454;13.862;2023-01-08T02:53:43;5.30;99.90
18047;DHT22;9148;51.454;13.862;2023-01-08T02:56:14;5.60;99.90
18047;DHT22;9148;51.454;13.862;2023-01-08T02:58:43;5.30;99.90
18047;DHT22;9148;51.454;13.862;2023-01-08T03:01:13;5.40;99.90
18047;DHT22;9148;51.454;13.862;2023-01-08T03:03:43;5.30;99.90
18047;DHT22;9148;51.454;13.862;2023-01-08T03:06:13;5.30;99.90
18047;DHT22;9148;51.454;13.862;2023-01-08T03:08:42;6.10;99.90
18047;DHT22;9148;51.454;13.862;2023-01-08T03:11:13;5.40;99.90
18047;DHT22;9148;51.454;13.862;2023-01-08T03:13:50;5.90;99.90
18047;DHT22;9148;51.454;13.862;2023-01-08T03:16:25;5.50;99.90
18047;DHT22;9148;51.454;13.862;2023-01-08T03:19:01;5.50;99.90
18047;DHT22;9148;51.454;13.862;2023-01-08T03:21:34;5.60;99.90
18047;DHT22;9148;51.454;13.862;2023-01-08T03:24:02;5.60;99.90
18047;DHT22;9148;51.454;13.862;2023-01-08T03:26:29;5.70;99.90
18047;DHT22;9148;51.454;13.862;2023-01-08T03:28:56;5.70;99.90
18047;DHT22;9148;51.454;13.862;2023-01-08T03:31:24;5.80;99.90
18047;DHT22;9148;51.454;13.862;2023-01-08T03:33:53;5.80;99.90
18047;DHT22;9148;51.454;13.862;2023-01-08T03:36:23;5.90;99.90
18047;DHT22;9148;51.454;13.862;2023-01-08T03:38:55;6.00;99.90
18047;DHT22;9148;51.454;13.862;2023-01-08T03:41:26;6.90;99.90
18047;DHT22;9148;51.454;13.862;2023-01-08T03:43:54;6.70;99.90
18047;DHT22;9148;51.454;13.862;2023-01-08T03:46:28;6.70;99.90
18047;DHT22;9148;51.454;13.862;2023-01-08T03:48:58;7.00;99.90
18047;DHT22;9148;51.454;13.862;2023-01-08T03:51:24;6.30;99.90
18047;DHT22;9148;51.454;13.862;2023-01-08T03:53:52;6.40;99.90
18047;DHT22;9148;51.454;13.862;2023-01-08T03:56:19;6.40;99.90
18047;DHT22;9148;51.454;13.862;2023-01-08T03:58:44;6.40;99.90
18047;DHT22;9148;51.454;13.862;2023-01-08T04:01:11;7.20;99.90
18047;DHT22;9148;51.454;13.862;2023-01-08T04:03:36;6.40;99.90
18047;DHT22;9148;51.454;13.862;2023-01-08T04:06:02;6.40;99.90
18047;DHT22;9148;51.454;13.862;2023-01-08T04:08:28;7.10;99.90
18047;DHT22;9148;51.454;13.862;2023-01-08T04:10:53;6.70;99.90
18047;DHT22;9148;51.454;13.862;2023-01-08T04:13:19;6.50;99.90
18047;DHT22;9148;51.454;13.862;2023-01-08T04:15:49;6.90;99.90
18047;DHT22;9148;51.454;13.862;2023-01-08T04:18:16;7.00;99.90
18047;DHT22;9148;51.454;13.862;2023-01-08T04:20:46;6.80;99.90
18047;DHT22;9148;51.454;13.862;2023-01-08T04:23:12;6.50;99.90
18047;DHT22;9148;51.454;13.862;2023-01-08T04:25:38;6.50;99.90
18047;DHT22;9148;51.454;13.862;2023-01-08T04:28:04;6.60;99.90
18047;DHT22;9148;51.454;13.862;2023-01-08T04:30:30;6.70;99.90
18047;DHT22;9148;51.454;13.862;2023-01-08T04:32:55;6.60;99.90
18047;DHT22;9148;51.454;13.862;2023-01-08T04:35:21;7.30;99.90
18047;DHT22;9148;51.454;13.862;2023-01-08T04:37:47;6.70;99.90
18047;DHT22;9148;51.454;13.862;2023-01-08T04:40:13;7.10;99.90
18047;DHT22;9148;51.454;13.862;2023-01-08T04:42:39;6.60;99.90
18047;DHT22;9148;51.454;13.862;2023-01-08T04:45:05;6.60;99.90
18047;DHT22;9148;51.454;13.862;2023-01-08T04:47:32;6.60;99.90
18047;DHT22;9148;51.454;13.862;2023-01-08T04:49:57;6.50;99.90
18047;DHT22;9148;51.454;13.862;2023-01-08T04:52:23;7.10;99.90
18047;DHT22;9148;51.454;13.862;2023-01-08T04:54:49;6.50;99.90
18047;DHT22;9148;51.454;13.862;2023-01-08T04:57:15;7.10;99.90
18047;DHT22;9148;51.454;13.862;2023-01-08T04:59:40;6.50;99.90
18047;DHT22;9148;51.454;13.862;2023-01-08T05:02:06;6.40;99.90
18047;DHT22;9148;51.454;13.862;2023-01-08T05:04:32;6.80;99.90
18047;DHT22;9148;51.454;13.862;2023-01-08T05:06:57;7.10;99.90
18047;DHT22;9148;51.454;13.862;2023-01-08T05:09:23;6.80;99.90
18047;DHT22;9148;51.454;13.862;2023-01-08T05:11:49;6.60;99.90
18047;DHT22;9148;51.454;13.862;2023-01-08T05:14:14;6.60;99.90
18047;DHT22;9148;51.454;13.862;2023-01-08T05:16:40;6.60;99.90
18047;DHT22;9148;51.454;13.862;2023-01-08T05:19:06;6.60;99.90
18047;DHT22;9148;51.454;13.862;2023-01-08T05:21:32;6.70;99.90
18047;DHT22;9148;51.454;13.862;2023-01-08T05:23:57;6.60;99.90
18047;DHT22;9148;51.454;13.862;2023-01-08T05:26:23;6.90;99.90
18047;DHT22;9148;51.454;13.862;2023-01-08T05:28:49;6.60;99.90
18047;DHT22;9148;51.454;13.862;2023-01-08T05:31:15;6.80;99.90
18047;DHT22;9148;51.454;13.862;2023-01-08T05:33:41;7.00;99.90
18047;DHT22;9148;51.454;13.862;2023-01-08T05:36:08;6.60;99.90
18047;DHT22;9148;51.454;13.862;2023-01-08T05:38:35;6.60;99.90
18047;DHT22;9148;51.454;13.862;2023-01-08T05:41:00;6.60;99.90
18047;DHT22;9148;51.454;13.862;2023-01-08T05:43:26;7.00;99.90
18047;DHT22;9148;51.454;13.862;2023-01-08T05:45:52;6.70;99.90
18047;DHT22;9148;51.454;13.862;2023-01-08T05:48:17;6.60;99.90
18047;DHT22;9148;51.454;13.862;2023-01-08T05:50:43;6.70;99.90
18047;DHT22;9148;51.454;13.862;2023-01-08T05:53:09;6.60;99.90
18047;DHT22;9148;51.454;13.862;2023-01-08T05:55:35;6.60;99.90
18047;DHT22;9148;51.454;13.862;2023-01-08T05:58:02;6.60;99.90
18047;DHT22;9148;51.454;13.862;2023-01-08T06:00:29;7.20;99.90
18047;DHT22;9148;51.454;13.862;2023-01-08T06:02:55;6.90;99.90
18047;DHT22;9148;51.454;13.862;2023-01-08T06:05:21;7.00;99.90
18047;DHT22;9148;51.454;13.862;2023-01-08T06:07:46;7.30;99.90
18047;DHT22;9148;51.454;13.862;2023-01-08T06:10:12;6.90;99.90
18047;DHT22;9148;51.454;13.862;2023-01-08T06:12:38;6.80;99.90
18047;DHT22;9148;51.454;13.862;2023-01-08T06:15:04;7.20;99.90
18047;DHT22;9148;51.454;13.862;2023-01-08T06:17:30;7.00;99.90
18047;DHT22;9148;51.454;13.862;2023-01-08T06:19:56;7.60;99.90
18047;DHT22;9148;51.454;13.862;2023-01-08T06:22:22;7.10;99.90
18047;DHT22;9148;51.454;13.862;2023-01-08T06:24:48;7.00;99.90
18047;DHT22;9148;51.454;13.862;2023-01-08T06:27:13;7.10;99.90
18047;DHT22;9148;51.454;13.862;2023-01-08T06:29:39;7.10;99.90
18047;DHT22;9148;51.454;13.862;2023-01-08T06:32:04;7.10;99.90
18047;DHT22;9148;51.454;13.862;2023-01-08T06:34:30;7.10;99.90
18047;DHT22;9148;51.454;13.862;2023-01-08T06:36:56;7.20;99.90
18047;DHT22;9148;51.454;13.862;2023-01-08T06:39:21;7.10;99.90
18047;DHT22;9148;51.454;13.862;2023-01-08T06:41:47;7.10;99.90
18047;DHT22;9148;51.454;13.862;2023-01-08T06:44:13;7.00;99.90
18047;DHT22;9148;51.454;13.862;2023-01-08T06:46:38;7.50;99.90
18047;DHT22;9148;51.454;13.862;2023-01-08T06:49:08;7.10;99.90
18047;DHT22;9148;51.454;13.862;2023-01-08T06:51:34;6.90;99.90
18047;DHT22;9148;51.454;13.862;2023-01-08T06:54:02;6.90;99.90
18047;DHT22;9148;51.454;13.862;2023-01-08T06:56:28;7.30;99.90
18047;DHT22;9148;51.454;13.862;2023-01-08T06:58:53;6.80;99.90
18047;DHT22;9148;51.454;13.862;2023-01-08T07:01:19;7.50;99.90
18047;DHT22;9148;51.454;13.862;2023-01-08T07:03:47;7.50;99.90
18047;DHT22;9148;51.454;13.862;2023-01-08T07:06:18;6.80;99.90
18047;DHT22;9148;51.454;13.862;2023-01-08T07:08:45;7.00;99.90
18047;DHT22;9148;51.454;13.862;2023-01-08T07:11:10;6.80;99.90
18047;DHT22;9148;51.454;13.862;2023-01-08T07:13:36;6.80;99.90
18047;DHT22;9148;51.454;13.862;2023-01-08T07:16:10;6.80;99.90
18047;DHT22;9148;51.454;13.862;2023-01-08T07:18:37;6.80;99.90
18047;DHT22;9148;51.454;13.862;2023-01-08T07:21:04;6.80;99.90
18047;DHT22;9148;51.454;13.862;2023-01-08T07:23:31;6.80;99.90
18047;DHT22;9148;51.454;13.862;2023-01-08T07:26:01;7.40;99.90
18047;DHT22;9148;51.454;13.862;2023-01-08T07:28:28;7.00;99.90
18047;DHT22;9148;51.454;13.862;2023-01-08T07:30:54;6.90;99.90
18047;DHT22;9148;51.454;13.862;2023-01-08T07:33:20;6.90;99.90
18047;DHT22;9148;51.454;13.862;2023-01-08T07:35:53;7.00;99.90
18047;DHT22;9148;51.454;13.862;2023-01-08T07:38:19;7.30;99.90
18047;DHT22;9148;51.454;13.862;2023-01-08T07:40:44;7.80;99.90
18047;DHT22;9148;51.454;13.862;2023-01-08T07:43:10;7.00;99.90
18047;DHT22;9148;51.454;13.862;2023-01-08T07:45:39;7.30;99.90
18047;DHT22;9148;51.454;13.862;2023-01-08T07:48:05;7.10;99.90
18047;DHT22;9148;51.454;13.862;2023-01-08T07:50:32;7.10;99.90
18047;DHT22;9148;51.454;13.862;2023-01-08T07:52:59;7.20;99.90
18047;DHT22;9148;51.454;13.862;2023-01-08T07:55:26;7.70;99.90
18047;DHT22;9148;51.454;13.862;2023-01-08T07:57:52;7.20;99.90
18047;DHT22;9148;51.454;13.862;2023-01-08T08:00:18;7.20;99.90
18047;DHT22;9148;51.454;13.862;2023-01-08T08:02:44;7.30;99.90
18047;DHT22;9148;51.454;13.862;2023-01-08T08:05:10;7.30;99.90
18047;DHT22;9148;51.454;13.862;2023-01-08T08:07:35;7.60;99.90
18047;DHT22;9148;51.454;13.862;2023-01-08T08:10:03;7.40;99.90
18047;DHT22;9148;51.454;13.862;2023-01-08T08:12:29;7.40;99.90
18047;DHT22;9148;51.454;13.862;2023-01-08T08:14:54;7.40;99.90
18047;DHT22;9148;51.454;13.862;2023-01-08T08:17:20;7.40;99.90
18047;DHT22;9148;51.454;13.862;2023-01-08T08:19:46;7.40;99.90
18047;DHT22;9148;51.454;13.862;2023-01-08T08:22:12;7.70;99.90
18047;DHT22;9148;51.454;13.862;2023-01-08T08:24:38;7.40;99.90
18047;DHT22;9148;51.454;13.862;2023-01-08T08:27:03;7.50;99.90
18047;DHT22;9148;51.454;13.862;2023-01-08T08:29:29;7.90;99.90
18047;DHT22;9148;51.454;13.862;2023-01-08T08:31:55;7.50;99.90
18047;DHT22;9148;51.454;13.862;2023-01-08T08:34:20;7.60;99.90
18047;DHT22;9148;51.454;13.862;2023-01-08T08:36:47;7.70;99.90
18047;DHT22;9148;51.454;13.862;2023-01-08T08:39:14;8.20;99.90
18047;DHT22;9148;51.454;13.862;2023-01-08T08:41:39;7.70;99.90
18047;DHT22;9148;51.454;13.862;2023-01-08T08:44:07;7.70;99.90
18047;DHT22;9148;51.454;13.862;2023-01-08T08:46:33;7.80;99.90
18047;DHT22;9148;51.454;13.862;2023-01-08T08:48:59;7.90;99.90
18047;DHT22;9148;51.454;13.862;2023-01-08T08:51:25;8.10;99.90
18047;DHT22;9148;51.454;13.862;2023-01-08T08:53:51;8.20;99.90
18047;DHT22;9148;51.454;13.862;2023-01-08T08:56:16;8.20;99.90
18047;DHT22;9148;51.454;13.862;2023-01-08T08:58:42;8.30;99.90
18047;DHT22;9148;51.454;13.862;2023-01-08T09:01:09;8.40;99.90
18047;DHT22;9148;51.454;13.862;2023-01-08T09:03:35;8.60;99.90
18047;DHT22;9148;51.454;13.862;2023-01-08T09:06:01;8.60;99.90
18047;DHT22;9148;51.454;13.862;2023-01-08T09:08:27;8.70;99.90
18047;DHT22;9148;51.454;13.862;2023-01-08T09:10:52;8.70;99.90
18047;DHT22;9148;51.454;13.862;2023-01-08T09:13:18;8.70;99.90
18047;DHT22;9148;51.454;13.862;2023-01-08T09:15:44;8.70;99.90
18047;DHT22;9148;51.454;13.862;2023-01-08T09:18:10;8.70;99.90
18047;DHT22;9148;51.454;13.862;2023-01-08T09:20:35;8.80;99.90
18047;DHT22;9148;51.454;13.862;2023-01-08T09:23:02;8.80;99.90
18047;DHT22;9148;51.454;13.862;2023-01-08T09:25:28;8.70;99.90
18047;DHT22;9148;51.454;13.862;2023-01-08T09:28:08;8.70;99.90
18047;DHT22;9148;51.454;13.862;2023-01-08T09:30:37;8.70;99.90
18047;DHT22;9148;51.454;13.862;2023-01-08T09:33:04;8.70;99.90
18047;DHT22;9148;51.454;13.862;2023-01-08T09:35:31;8.70;99.90
18047;DHT22;9148;51.454;13.862;2023-01-08T09:37:57;8.70;99.90
18047;DHT22;9148;51.454;13.862;2023-01-08T09:40:27;8.70;99.90
18047;DHT22;9148;51.454;13.862;2023-01-08T09:42:59;8.80;99.90
18047;DHT22;9148;51.454;13.862;2023-01-08T09:45:30;8.80;99.90
18047;DHT22;9148;51.454;13.862;2023-01-08T09:48:00;8.80;99.90
18047;DHT22;9148;51.454;13.862;2023-01-08T09:50:28;8.80;99.90
18047;DHT22;9148;51.454;13.862;2023-01-08T09:52:56;8.80;99.90
18047;DHT22;9148;51.454;13.862;2023-01-08T09:55:22;8.80;99.90
18047;DHT22;9148;51.454;13.862;2023-01-08T09:57:48;8.90;99.90
18047;DHT22;9148;51.454;13.862;2023-01-08T10:00:16;9.10;99.90
18047;DHT22;9148;51.454;13.862;2023-01-08T10:02:44;8.90;99.90
18047;DHT22;9148;51.454;13.862;2023-01-08T10:05:15;8.90;99.90
18047;DHT22;9148;51.454;13.862;2023-01-08T10:07:43;8.90;99.90
18047;DHT22;9148;51.454;13.862;2023-01-08T10:10:19;9.00;99.90
18047;DHT22;9148;51.454;13.862;2023-01-08T10:12:48;9.00;99.90
18047;DHT22;9148;51.454;13.862;2023-01-08T10:15:16;9.00;99.90
18047;DHT22;9148;51.454;13.862;2023-01-08T10:20:16;8.90;99.90
18047;DHT22;9148;51.454;13.862;2023-01-08T10:22:44;9.50;99.90
18047;DHT22;9148;51.454;13.862;2023-01-08T10:25:18;9.00;99.90
18047;DHT22;9148;51.454;13.862;2023-01-08T10:27:46;9.00;99.90
18047;DHT22;9148;51.454;13.862;2023-01-08T10:33:12;9.00;99.90
18047;DHT22;9148;51.454;13.862;2023-01-08T10:35:51;9.00;99.90
18047;DHT22;9148;51.454;13.862;2023-01-08T10:38:31;9.00;99.90
18047;DHT22;9148;51.454;13.862;2023-01-08T10:41:04;9.00;99.90
18047;DHT22;9148;51.454;13.862;2023-01-08T10:43:33;9.00;99.90
18047;DHT22;9148;51.454;13.862;2023-01-08T10:46:21;8.90;99.90
18047;DHT22;9148;51.454;13.862;2023-01-08T10:48:51;9.00;99.90
18047;DHT22;9148;51.454;13.862;2023-01-08T10:51:27;9.00;99.90
18047;DHT22;9148;51.454;13.862;2023-01-08T10:53:58;9.50;99.90
18047;DHT22;9148;51.454;13.862;2023-01-08T10:56:26;9.10;99.90
18047;DHT22;9148;51.454;13.862;2023-01-08T10:58:53;9.00;99.90
18047;DHT22;9148;51.454;13.862;2023-01-08T11:01:22;9.00;99.90
18047;DHT22;9148;51.454;13.862;2023-01-08T11:03:51;8.90;99.90
18047;DHT22;9148;51.454;13.862;2023-01-08T11:06:28;9.00;99.90
18047;DHT22;9148;51.454;13.862;2023-01-08T11:09:00;8.90;99.90
18047;DHT22;9148;51.454;13.862;2023-01-08T11:11:33;8.90;99.90
18047;DHT22;9148;51.454;13.862;2023-01-08T11:14:03;8.90;99.90
18047;DHT22;9148;51.454;13.862;2023-01-08T11:16:33;8.90;99.90
18047;DHT22;9148;51.454;13.862;2023-01-08T11:19:00;8.90;99.90
18047;DHT22;9148;51.454;13.862;2023-01-08T11:21:28;8.90;99.90
18047;DHT22;9148;51.454;13.862;2023-01-08T11:24:14;8.80;99.90
18047;DHT22;9148;51.454;13.862;2023-01-08T11:26:50;8.90;99.90
18047;DHT22;9148;51.454;13.862;2023-01-08T11:29:23;8.90;99.90
18047;DHT22;9148;51.454;13.862;2023-01-08T11:31:58;8.90;99.90
18047;DHT22;9148;51.454;13.862;2023-01-08T11:37:27;8.90;99.90
18047;DHT22;9148;51.454;13.862;2023-01-08T11:39:54;8.80;99.90
18047;DHT22;9148;51.454;13.862;2023-01-08T11:45:14;8.80;99.90
18047;DHT22;9148;51.454;13.862;2023-01-08T11:53:41;8.70;99.90
18047;DHT22;9148;51.454;13.862;2023-01-08T11:59:04;8.70;99.90
18047;DHT22;9148;51.454;13.862;2023-01-08T12:01:52;8.60;99.90
18047;DHT22;9148;51.454;13.862;2023-01-08T12:05:03;8.60;99.90
18047;DHT22;9148;51.454;13.862;2023-01-08T12:22:33;8.60;99.90
18047;DHT22;9148;51.454;13.862;2023-01-08T12:28:54;8.60;99.90
18047;DHT22;9148;51.454;13.862;2023-01-08T12:35:27;8.70;99.90
18047;DHT22;9148;51.454;13.862;2023-01-08T12:40:35;8.80;99.90
18047;DHT22;9148;51.454;13.862;2023-01-08T12:43:20;8.70;99.90
18047;DHT22;9148;51.454;13.862;2023-01-08T12:45:51;8.90;99.90
18047;DHT22;9148;51.454;13.862;2023-01-08T12:48:21;8.90;99.90
18047;DHT22;9148;51.454;13.862;2023-01-08T12:51:12;8.90;99.90
18047;DHT22;9148;51.454;13.862;2023-01-08T12:56:51;8.90;99.90
18047;DHT22;9148;51.454;13.862;2023-01-08T13:02:29;8.80;99.90
18047;DHT22;9148;51.454;13.862;2023-01-08T13:04:57;8.80;99.90
18047;DHT22;9148;51.454;13.862;2023-01-08T13:07:37;8.80;99.90
18047;DHT22;9148;51.454;13.862;2023-01-08T13:10:18;8.80;99.90
18047;DHT22;9148;51.454;13.862;2023-01-08T13:12:49;8.80;99.90
18047;DHT22;9148;51.454;13.862;2023-01-08T13:15:19;8.70;99.90
18047;DHT22;9148;51.454;13.862;2023-01-08T13:17:49;8.70;99.90
18047;DHT22;9148;51.454;13.862;2023-01-08T13:20:30;8.70;99.90
18047;DHT22;9148;51.454;13.862;2023-01-08T13:22:59;8.70;99.90
18047;DHT22;9148;51.454;13.862;2023-01-08T13:25:32;8.40;99.90
18047;DHT22;9148;51.454;13.862;2023-01-08T13:28:00;8.70;99.90
18047;DHT22;9148;51.454;13.862;2023-01-08T13:30:38;8.70;99.90
18047;DHT22;9148;51.454;13.862;2023-01-08T13:33:34;8.70;99.90
18047;DHT22;9148;51.454;13.862;2023-01-08T13:36:16;8.80;99.90
18047;DHT22;9148;51.454;13.862;2023-01-08T13:39:20;8.70;99.90
18047;DHT22;9148;51.454;13.862;2023-01-08T13:42:18;8.80;99.90
18047;DHT22;9148;51.454;13.862;2023-01-08T13:44:58;8.70;99.90
18047;DHT22;9148;51.454;13.862;2023-01-08T13:47:40;8.70;99.90
18047;DHT22;9148;51.454;13.862;2023-01-08T13:50:16;8.70;99.90
18047;DHT22;9148;51.454;13.862;2023-01-08T13:52:57;8.70;99.90
18047;DHT22;9148;51.454;13.862;2023-01-08T13:55:36;8.60;99.90
18047;DHT22;9148;51.454;13.862;2023-01-08T13:58:07;9.40;99.90
18047;DHT22;9148;51.454;13.862;2023-01-08T14:00:47;8.30;99.90
18047;DHT22;9148;51.454;13.862;2023-01-08T14:03:24;8.10;99.90
18047;DHT22;9148;51.454;13.862;2023-01-08T14:06:19;8.00;99.90
18047;DHT22;9148;51.454;13.862;2023-01-08T14:08:56;7.90;99.90
18047;DHT22;9148;51.454;13.862;2023-01-08T14:11:39;7.80;99.90
18047;DHT22;9148;51.454;13.862;2023-01-08T14:14:15;7.60;99.90
18047;DHT22;9148;51.454;13.862;2023-01-08T14:16:43;7.70;99.90
18047;DHT22;9148;51.454;13.862;2023-01-08T14:19:20;7.50;99.90
18047;DHT22;9148;51.454;13.862;2023-01-08T14:21:56;7.40;99.90
18047;DHT22;9148;51.454;13.862;2023-01-08T14:24:24;8.00;99.90
18047;DHT22;9148;51.454;13.862;2023-01-08T14:26:52;7.30;99.90
18047;DHT22;9148;51.454;13.862;2023-01-08T14:29:24;7.20;99.90
18047;DHT22;9148;51.454;13.862;2023-01-08T14:31:59;7.20;99.90
18047;DHT22;9148;51.454;13.862;2023-01-08T14:34:28;7.10;99.90
18047;DHT22;9148;51.454;13.862;2023-01-08T14:36:55;7.10;99.90
18047;DHT22;9148;51.454;13.862;2023-01-08T14:39:31;7.00;99.90
18047;DHT22;9148;51.454;13.862;2023-01-08T14:42:04;7.00;99.90
18047;DHT22;9148;51.454;13.862;2023-01-08T14:44:58;7.00;99.90
18047;DHT22;9148;51.454;13.862;2023-01-08T14:47:32;7.00;99.90
18047;DHT22;9148;51.454;13.862;2023-01-08T14:49:59;6.90;99.90
18047;DHT22;9148;51.454;13.862;2023-01-08T14:52:25;6.90;99.90
18047;DHT22;9148;51.454;13.862;2023-01-08T14:54:54;7.20;99.90
18047;DHT22;9148;51.454;13.862;2023-01-08T14:57:24;7.10;99.90
18047;DHT22;9148;51.454;13.862;2023-01-08T14:59:55;6.90;99.90
18047;DHT22;9148;51.454;13.862;2023-01-08T15:02:28;6.90;99.90
18047;DHT22;9148;51.454;13.862;2023-01-08T15:05:19;6.90;99.90
18047;DHT22;9148;51.454;13.862;2023-01-08T15:08:00;6.80;99.90
18047;DHT22;9148;51.454;13.862;2023-01-08T15:10:41;7.10;99.90
18047;DHT22;9148;51.454;13.862;2023-01-08T15:13:24;6.40;99.90
18047;DHT22;9148;51.454;13.862;2023-01-08T15:21:38;6.70;99.90
18047;DHT22;9148;51.454;13.862;2023-01-08T15:26:52;6.70;99.90
18047;DHT22;9148;51.454;13.862;2023-01-08T15:29:22;6.70;99.90
18047;DHT22;9148;51.454;13.862;2023-01-08T15:31:53;6.60;99.90
18047;DHT22;9148;51.454;13.862;2023-01-08T15:34:19;6.80;99.90
18047;DHT22;9148;51.454;13.862;2023-01-08T15:36:46;6.60;99.90
18047;DHT22;9148;51.454;13.862;2023-01-08T15:39:12;7.40;99.90
18047;DHT22;9148;51.454;13.862;2023-01-08T15:41:38;6.60;99.90
18047;DHT22;9148;51.454;13.862;2023-01-08T15:44:24;6.70;99.90
18047;DHT22;9148;51.454;13.862;2023-01-08T15:46:50;6.60;99.90
18047;DHT22;9148;51.454;13.862;2023-01-08T15:49:17;6.70;99.90
18047;DHT22;9148;51.454;13.862;2023-01-08T15:51:45;6.90;99.90
18047;DHT22;9148;51.454;13.862;2023-01-08T15:54:12;6.70;99.90
18047;DHT22;9148;51.454;13.862;2023-01-08T15:56:38;6.70;99.90
18047;DHT22;9148;51.454;13.862;2023-01-08T15:59:04;6.70;99.90
18047;DHT22;9148;51.454;13.862;2023-01-08T16:01:31;6.90;99.90
18047;DHT22;9148;51.454;13.862;2023-01-08T16:03:57;7.20;99.90
18047;DHT22;9148;51.454;13.862;2023-01-08T16:06:23;6.80;99.90
18047;DHT22;9148;51.454;13.862;2023-01-08T16:08:49;6.80;99.90
18047;DHT22;9148;51.454;13.862;2023-01-08T16:11:16;6.90;99.90
18047;DHT22;9148;51.454;13.862;2023-01-08T16:13:42;6.80;99.90
18047;DHT22;9148;51.454;13.862;2023-01-08T16:16:12;6.50;99.90
18047;DHT22;9148;51.454;13.862;2023-01-08T16:18:39;6.90;99.90
18047;DHT22;9148;51.454;13.862;2023-01-08T16:21:06;7.00;99.90
18047;DHT22;9148;51.454;13.862;2023-01-08T16:23:34;6.90;99.90
18047;DHT22;9148;51.454;13.862;2023-01-08T16:26:12;7.40;99.90
18047;DHT22;9148;51.454;13.862;2023-01-08T16:28:39;7.00;99.90
18047;DHT22;9148;51.454;13.862;2023-01-08T16:31:06;6.90;99.90
18047;DHT22;9148;51.454;13.862;2023-01-08T16:33:32;7.00;99.90
18047;DHT22;9148;51.454;13.862;2023-01-08T16:36:03;6.90;99.90
18047;DHT22;9148;51.454;13.862;2023-01-08T16:38:30;6.90;99.90
18047;DHT22;9148;51.454;13.862;2023-01-08T16:40:56;7.50;99.90
18047;DHT22;9148;51.454;13.862;2023-01-08T16:43:26;6.90;99.90
18047;DHT22;9148;51.454;13.862;2023-01-08T16:45:53;7.00;99.90
18047;DHT22;9148;51.454;13.862;2023-01-08T16:48:19;6.90;99.90
18047;DHT22;9148;51.454;13.862;2023-01-08T16:50:46;7.00;99.90
18047;DHT22;9148;51.454;13.862;2023-01-08T16:53:12;7.50;99.90
18047;DHT22;9148;51.454;13.862;2023-01-08T16:55:39;7.20;99.90
18047;DHT22;9148;51.454;13.862;2023-01-08T16:58:06;7.30;99.90
18047;DHT22;9148;51.454;13.862;2023-01-08T17:00:34;7.20;99.90
18047;DHT22;9148;51.454;13.862;2023-01-08T17:03:02;7.60;99.90
18047;DHT22;9148;51.454;13.862;2023-01-08T17:05:29;7.60;99.90